Time;durP1;ratioP1;P1;durP2;ratioP2;P2;SDS_P1;SDS_P2;PMS_P1;PMS_P2;Temp;Humidity;BMP_temperature;BMP_pressure;BME280_temperature;BME280_humidity;BME280_pressure;Samples;Min_cycle;Max_cycle;Signal;HPM_P1;HPM_P2
2022/04/29 00:00:34;;;;;;;9.27;3.58;;;;;;;38.14;3.80;100579.34;5092132;28;20435;-66
2022/04/29 00:03:02;;;;;;;18.25;4.20;;;;;;;36.91;4.13;100589.28;5091232;28;20119;-68
2022/04/29 00:05:29;;;;;;;15.00;4.30;;;;;;;37.45;4.28;100582.81;5090891;28;20032;-68
2022/04/29 00:07:56;;;;;;;10.20;3.67;;;;;;;36.52;4.54;100598.88;5093115;28;20043;-68
2022/04/29 00:10:23;;;;;;;13.02;3.65;;;;;;;35.94;5.12;100601.56;5095083;28;20040;-67
2022/04/29 00:12:49;;;;;;;14.05;4.28;;;;;;;35.28;5.78;100580.03;5092678;28;20063;-67
2022/04/29 00:15:18;;;;;;;12.88;4.45;;;;;;;34.98;5.58;100559.28;5092288;28;20044;-68
2022/04/29 00:17:45;;;;;;;11.35;4.10;;;;;;;35.65;6.42;100582.44;5093847;28;20096;-68
2022/04/29 00:20:12;;;;;;;16.58;4.65;;;;;;;37.52;5.88;100585.41;5091985;28;20059;-67
2022/04/29 00:22:39;;;;;;;15.13;5.22;;;;;;;35.97;6.41;100587.34;5095338;28;20020;-67
2022/04/29 00:25:07;;;;;;;18.63;4.93;;;;;;;33.71;7.67;100588.56;5096851;28;20428;-68
2022/04/29 00:27:35;;;;;;;21.70;5.28;;;;;;;35.28;6.57;100585.69;5094631;28;20549;-68
2022/04/29 00:30:03;;;;;;;13.45;4.40;;;;;;;34.04;6.41;100589.69;5094161;28;20039;-67
2022/04/29 00:32:30;;;;;;;13.50;4.85;;;;;;;34.13;6.45;100589.94;5097317;28;20089;-68
2022/04/29 00:34:57;;;;;;;17.67;4.63;;;;;;;33.05;6.67;100600.34;5073940;28;20058;-67
2022/04/29 00:37:24;;;;;;;14.10;4.45;;;;;;;33.04;6.36;100596.75;5089871;28;20027;-66
2022/04/29 00:39:51;;;;;;;19.85;4.13;;;;;;;33.37;6.64;100607.59;5091944;28;20530;-66
2022/04/29 00:42:22;;;;;;;14.95;4.55;;;;;;;32.72;6.54;100604.75;5076366;28;20051;-64
2022/04/29 00:44:49;;;;;;;21.52;6.22;;;;;;;33.97;6.12;100589.81;5093971;28;20558;-66
2022/04/29 00:47:21;;;;;;;20.05;5.28;;;;;;;32.56;6.40;100622.19;5073850;28;20401;-66
2022/04/29 00:49:49;;;;;;;17.33;4.57;;;;;;;31.87;5.90;100606.31;5091971;28;20040;-66
2022/04/29 00:52:20;;;;;;;14.48;4.47;;;;;;;31.96;6.70;100615.09;5080064;28;20047;-65
2022/04/29 00:55:02;;;;;;;16.48;4.78;;;;;;;30.72;7.75;100604.44;5072785;28;20499;-66
2022/04/29 00:58:06;;;;;;;16.95;5.05;;;;;;;31.01;7.62;100613.56;5088224;28;20121;-67
2022/04/29 01:00:40;;;;;;;23.25;5.25;;;;;;;30.10;8.57;100616.09;5060058;28;20090;-65
2022/04/29 01:03:21;;;;;;;26.13;5.35;;;;;;;30.33;8.50;100625.69;5065457;28;20601;-65
2022/04/29 01:05:50;;;;;;;21.30;5.90;;;;;;;29.76;8.93;100620.03;5091605;28;20051;-65
2022/04/29 01:08:17;;;;;;;23.75;5.97;;;;;;;29.51;9.45;100629.59;5074392;28;20053;-66
2022/04/29 01:10:46;;;;;;;16.58;5.32;;;;;;;29.82;9.31;100600.06;5070835;28;20128;-65
2022/04/29 01:13:13;;;;;;;14.15;4.80;;;;;;;28.95;10.38;100636.56;5072043;28;20028;-65
2022/04/29 01:15:40;;;;;;;23.67;5.25;;;;;;;29.41;10.01;100622.72;5087143;28;20146;-63
2022/04/29 01:18:11;;;;;;;26.75;5.80;;;;;;;29.63;10.02;100632.84;5074125;28;20048;-64
2022/04/29 01:20:39;;;;;;;21.08;5.57;;;;;;;29.37;11.17;100624.72;5073585;28;20063;-65
2022/04/29 01:23:07;;;;;;;25.35;5.30;;;;;;;29.15;11.21;100647.03;5090905;28;20110;-65
2022/04/29 01:25:35;;;;;;;26.00;5.78;;;;;;;29.10;11.27;100639.03;5071282;28;20053;-64
2022/04/29 01:28:01;;;;;;;24.63;5.90;;;;;;;28.53;11.75;100651.81;5088820;28;20028;-64
2022/04/29 01:30:28;;;;;;;29.20;5.93;;;;;;;28.58;11.53;100627.13;5073133;28;20047;-63
2022/04/29 01:32:57;;;;;;;25.73;6.20;;;;;;;28.56;11.93;100654.66;5072742;28;20101;-64
2022/04/29 01:35:24;;;;;;;23.13;5.82;;;;;;;28.19;12.68;100651.97;5089517;28;20036;-65
2022/04/29 01:37:51;;;;;;;25.30;5.45;;;;;;;28.10;12.57;100650.66;5083771;28;20063;-63
2022/04/29 01:40:19;;;;;;;26.65;6.00;;;;;;;27.80;12.68;100675.91;5074033;28;20031;-65
2022/04/29 01:42:46;;;;;;;23.08;5.82;;;;;;;27.28;12.80;100650.56;5080903;28;20028;-62
2022/04/29 01:45:13;;;;;;;27.05;5.72;;;;;;;27.25;13.00;100659.69;5070479;28;20523;-65
2022/04/29 01:48:05;;;;;;;24.23;6.30;;;;;;;26.85;13.75;100651.16;5070357;28;20396;-64
2022/04/29 01:50:49;;;;;;;29.73;6.40;;;;;;;26.65;13.79;100642.09;5089365;28;20131;-62
2022/04/29 01:53:16;;;;;;;36.50;6.15;;;;;;;26.39;14.02;100623.38;5071862;28;20038;-64
2022/04/29 01:55:43;;;;;;;36.35;6.32;;;;;;;26.27;13.17;100638.31;5073285;28;20107;-65
2022/04/29 01:58:10;;;;;;;39.13;7.18;;;;;;;26.17;13.45;100623.00;5067908;28;20490;-65
2022/04/29 02:00:38;;;;;;;25.58;6.32;;;;;;;25.98;13.04;100637.00;5071090;28;20028;-65
2022/04/29 02:03:05;;;;;;;31.17;6.15;;;;;;;25.84;12.64;100642.31;5069699;28;20067;-65
2022/04/29 02:05:31;;;;;;;29.10;5.85;;;;;;;25.81;12.55;100646.66;5089672;28;20034;-63
2022/04/29 02:08:00;;;;;;;26.48;5.65;;;;;;;25.69;12.65;100657.97;5085381;28;20085;-66
2022/04/29 02:10:28;;;;;;;28.40;5.60;;;;;;;25.56;12.56;100660.06;5059656;28;20038;-66
2022/04/29 02:12:55;;;;;;;27.83;6.05;;;;;;;25.49;12.52;100654.34;5071557;28;20036;-69
2022/04/29 02:15:40;;;;;;;23.13;6.10;;;;;;;25.41;12.27;100657.38;5091251;28;20117;-65
2022/04/29 02:18:11;;;;;;;24.73;5.78;;;;;;;25.25;12.34;100652.69;5066515;28;20123;-67
2022/04/29 02:20:38;;;;;;;24.85;6.13;;;;;;;25.24;12.20;100653.84;5072871;28;20036;-66
2022/04/29 02:23:06;;;;;;;29.48;6.22;;;;;;;25.18;11.94;100651.75;5091497;28;20020;-67
2022/04/29 02:25:33;;;;;;;22.92;6.05;;;;;;;25.07;11.60;100661.81;5089806;28;20028;-67
2022/04/29 02:27:59;;;;;;;23.38;5.70;;;;;;;25.10;11.10;100670.25;5091339;28;20028;-66
2022/04/29 02:30:27;;;;;;;27.35;6.63;;;;;;;24.98;11.30;100676.72;5074708;28;20038;-66
2022/04/29 02:32:54;;;;;;;24.40;6.60;;;;;;;24.89;11.37;100670.53;5072726;28;20032;-67
2022/04/29 02:35:20;;;;;;;20.95;6.03;;;;;;;24.80;11.41;100672.72;5070624;28;20047;-67
2022/04/29 02:37:47;;;;;;;23.10;5.75;;;;;;;24.76;11.29;100688.50;5068360;28;20093;-65
2022/04/29 02:40:15;;;;;;;21.60;4.93;;;;;;;24.83;10.98;100691.47;5089672;28;20398;-67
2022/04/29 02:42:42;;;;;;;22.38;5.65;;;;;;;24.87;10.76;100681.22;5070022;28;20367;-67
2022/04/29 02:45:10;;;;;;;15.68;5.88;;;;;;;24.80;10.66;100681.06;5069560;28;20059;-67
2022/04/29 02:47:43;;;;;;;20.95;5.57;;;;;;;24.83;10.35;100671.19;5071345;28;20028;-65
2022/04/29 02:50:10;;;;;;;20.48;5.47;;;;;;;24.74;10.40;100678.91;5071379;28;20028;-67
2022/04/29 02:52:40;;;;;;;15.45;5.43;;;;;;;24.77;10.41;100683.75;5070465;28;20481;-66
2022/04/29 02:55:08;;;;;;;17.50;6.28;;;;;;;24.51;10.58;100684.34;5090109;28;20028;-67
2022/04/29 02:57:49;;;;;;;16.48;5.25;;;;;;;24.54;10.54;100683.59;5074343;28;20036;-65
2022/04/29 03:00:16;;;;;;;20.70;5.78;;;;;;;24.56;10.45;100706.28;5071640;28;20040;-66
2022/04/29 03:02:43;;;;;;;21.25;7.20;;;;;;;24.36;10.83;100714.53;5089035;28;20470;-67
2022/04/29 03:05:10;;;;;;;20.33;8.07;;;;;;;24.31;11.04;100731.47;5074429;28;20402;-65
2022/04/29 03:07:38;;;;;;;23.00;6.57;;;;;;;24.09;11.14;100720.94;5071581;28;20123;-65
2022/04/29 03:10:09;;;;;;;18.77;5.97;;;;;;;24.04;11.23;100718.41;5073213;28;20036;-64
2022/04/29 03:12:37;;;;;;;18.65;5.90;;;;;;;24.03;11.18;100736.22;5070622;28;20554;-64
2022/04/29 03:15:17;;;;;;;19.95;6.93;;;;;;;23.79;11.56;100731.63;5067192;28;20071;-63
2022/04/29 03:20:38;;;;;;;20.52;6.25;;;;;;;23.65;11.58;100732.00;5073484;28;20032;-64
2022/04/29 03:23:06;;;;;;;17.52;6.20;;;;;;;23.73;11.19;100753.28;5074405;28;20097;-62
2022/04/29 03:25:34;;;;;;;23.80;6.18;;;;;;;23.55;11.64;100743.59;5075945;28;20560;-64
2022/04/29 03:28:01;;;;;;;19.45;6.18;;;;;;;23.38;11.49;100746.66;5075332;28;20028;-64
2022/04/29 03:30:29;;;;;;;16.05;5.93;;;;;;;23.45;11.30;100758.75;5074977;28;20039;-65
2022/04/29 03:32:59;;;;;;;17.13;5.80;;;;;;;23.30;11.55;100745.59;5073895;28;20036;-64
2022/04/29 03:35:43;;;;;;;14.60;5.50;;;;;;;23.19;11.36;100753.63;5072429;28;20050;-64
2022/04/29 03:38:21;;;;;;;14.75;5.75;;;;;;;23.13;11.44;100760.53;5076826;28;20039;-65
2022/04/29 03:40:48;;;;;;;22.67;6.40;;;;;;;23.08;11.41;100759.97;5090298;28;20140;-65
2022/04/29 03:43:16;;;;;;;15.27;6.00;;;;;;;23.00;11.33;100761.72;5077292;28;20082;-66
2022/04/29 03:45:45;;;;;;;15.13;6.00;;;;;;;23.04;11.45;100782.06;5074351;28;20082;-66
2022/04/29 03:48:16;;;;;;;16.95;6.20;;;;;;;22.79;11.49;100766.53;5059386;28;20028;-65
2022/04/29 03:50:56;;;;;;;20.27;6.18;;;;;;;22.81;11.90;100778.09;5074076;28;20181;-65
2022/04/29 03:53:23;;;;;;;24.05;6.18;;;;;;;22.81;11.76;100789.19;5077720;28;20106;-68
2022/04/29 03:56:03;;;;;;;23.83;6.88;;;;;;;22.61;12.04;100785.34;5072764;28;20043;-68
2022/04/29 03:58:30;;;;;;;22.83;6.70;;;;;;;22.66;12.06;100787.91;5076859;28;20039;-66
2022/04/29 04:00:58;;;;;;;22.80;6.78;;;;;;;22.63;12.24;100805.22;5074977;28;20028;-66
2022/04/29 04:03:47;;;;;;;18.70;7.22;;;;;;;22.51;12.52;100808.75;5088456;28;20039;-67
2022/04/29 04:09:04;;;;;;;17.38;6.60;;;;;;;22.32;12.71;100805.72;5053829;28;20175;-66
2022/04/29 04:11:31;;;;;;;23.35;6.38;;;;;;;22.27;12.97;100803.97;5046245;28;20025;-67
2022/04/29 04:14:00;;;;;;;13.77;6.32;;;;;;;22.17;13.36;100792.50;5048277;28;20033;-66
2022/04/29 04:16:33;;;;;;;15.57;7.95;;;;;;;22.18;13.22;100811.53;5047948;28;20033;-66
2022/04/29 04:19:00;;;;;;;17.20;7.05;;;;;;;21.99;13.56;100819.50;5048077;28;20037;-65
2022/04/29 04:21:28;;;;;;;15.43;7.18;;;;;;;21.95;13.94;100822.16;5050829;28;20036;-64
2022/04/29 04:23:55;;;;;;;15.35;7.38;;;;;;;21.99;13.72;100836.94;5060133;28;20487;-65
2022/04/29 04:26:23;;;;;;;20.40;7.40;;;;;;;21.78;14.19;100836.13;5047912;28;20445;-66
2022/04/29 04:28:51;;;;;;;18.05;7.53;;;;;;;21.71;14.55;100833.06;5032781;28;20029;-65
2022/04/29 04:31:21;;;;;;;13.63;5.75;;;;;;;21.74;14.83;100828.84;5048797;28;20033;-66
2022/04/29 04:33:52;;;;;;;20.83;6.43;;;;;;;21.71;15.06;100838.59;5049709;28;20037;-65
2022/04/29 04:36:19;;;;;;;15.38;5.63;;;;;;;21.63;15.24;100845.03;5046298;28;20033;-64
2022/04/29 04:38:47;;;;;;;10.35;5.78;;;;;;;21.49;15.90;100830.63;5049135;28;20048;-66
2022/04/29 04:41:18;;;;;;;15.27;5.78;;;;;;;21.59;15.68;100849.63;5049875;28;20128;-65
2022/04/29 04:43:45;;;;;;;18.08;6.40;;;;;;;21.44;15.93;100851.00;5050664;28;20048;-65
2022/04/29 04:46:13;;;;;;;17.42;6.50;;;;;;;21.28;16.47;100861.03;5052859;28;20098;-64
2022/04/29 04:48:41;;;;;;;17.50;6.63;;;;;;;21.25;16.73;100845.91;5048947;28;20532;-64
2022/04/29 04:51:11;;;;;;;18.50;6.70;;;;;;;21.22;16.91;100846.56;5055333;28;20041;-66
2022/04/29 04:53:42;;;;;;;17.35;6.40;;;;;;;21.03;17.17;100852.50;5048721;28;20030;-66
2022/04/29 04:56:09;;;;;;;20.42;6.82;;;;;;;20.91;17.52;100851.56;5049555;28;20043;-66
2022/04/29 04:58:36;;;;;;;16.58;6.15;;;;;;;20.81;17.83;100855.50;5049216;28;20051;-65
2022/04/29 05:01:03;;;;;;;20.23;6.05;;;;;;;20.86;17.85;100860.03;5062939;28;20033;-66
2022/04/29 05:03:55;;;;;;;17.20;8.07;;;;;;;20.65;18.19;100849.72;5046936;28;20028;-64
2022/04/29 05:06:48;;;;;;;22.00;10.40;;;;;;;20.64;18.49;100856.34;5033784;28;20041;-66
2022/04/29 05:09:16;;;;;;;17.10;8.98;;;;;;;20.73;18.82;100867.41;5042497;28;20056;-66
2022/04/29 05:11:42;;;;;;;17.33;6.65;;;;;;;20.64;19.26;100875.69;5047798;28;20112;-63
2022/04/29 05:14:20;;;;;;;12.20;5.45;;;;;;;20.56;20.36;100873.75;5037491;28;20124;-64
2022/04/29 05:16:48;;;;;;;17.73;6.38;;;;;;;20.39;20.96;100848.94;5049175;28;20040;-66
2022/04/29 05:19:37;;;;;;;17.17;6.60;;;;;;;20.30;21.66;100856.41;5038883;28;20037;-64
2022/04/29 05:22:05;;;;;;;18.08;7.20;;;;;;;20.20;21.70;100850.09;5049148;28;20478;-64
2022/04/29 05:24:32;;;;;;;19.60;6.68;;;;;;;20.18;22.10;100868.91;5046424;28;20475;-66
2022/04/29 05:27:17;;;;;;;16.65;7.55;;;;;;;20.24;22.81;100872.31;5049970;28;20398;-62
2022/04/29 05:29:47;;;;;;;15.73;8.15;;;;;;;20.30;22.75;100882.06;5048912;28;20033;-66
2022/04/29 05:32:34;;;;;;;22.17;9.32;;;;;;;20.16;23.61;100868.44;5050829;28;20044;-65
2022/04/29 05:35:38;;;;;;;22.88;10.30;;;;;;;20.04;24.00;100870.22;5007173;28;20045;-65
2022/04/29 05:38:23;;;;;;;18.85;6.18;;;;;;;19.87;24.87;100879.28;5046852;28;20107;-63
2022/04/29 05:43:34;;;;;;;19.35;8.82;;;;;;;19.72;25.99;100877.81;5050107;28;20147;-65
2022/04/29 05:46:01;;;;;;;24.75;6.82;;;;;;;19.66;26.24;100883.81;5054472;28;20033;-63
2022/04/29 05:48:28;;;;;;;19.02;7.13;;;;;;;19.69;26.35;100895.00;5048334;28;20040;-64
2022/04/29 05:50:56;;;;;;;23.13;6.38;;;;;;;19.59;26.99;100887.88;5047717;28;20041;-62
2022/04/29 05:53:24;;;;;;;24.13;6.57;;;;;;;19.60;27.39;100896.94;5050371;28;20039;-64
2022/04/29 05:56:00;;;;;;;19.85;6.35;;;;;;;19.53;26.85;100878.06;5063629;28;20044;-61
2022/04/29 05:58:27;;;;;;;23.13;6.32;;;;;;;19.46;27.06;100871.44;5031655;28;20490;-62
2022/04/29 06:01:14;;;;;;;17.88;7.03;;;;;;;19.53;27.39;100883.59;5045523;28;20039;-64
2022/04/29 06:03:41;;;;;;;20.45;6.65;;;;;;;19.50;27.56;100898.00;5046703;28;20033;-64
2022/04/29 06:06:08;;;;;;;18.67;6.85;;;;;;;19.48;27.48;100897.53;5053347;28;20071;-65
2022/04/29 06:08:38;;;;;;;18.65;6.63;;;;;;;19.58;27.62;100883.50;5089562;28;20035;-65
2022/04/29 06:11:08;;;;;;;21.60;6.75;;;;;;;19.50;27.29;100881.47;5053747;28;20565;-65
2022/04/29 06:13:37;;;;;;;16.77;6.38;;;;;;;19.51;27.03;100876.78;5069745;28;20029;-64
2022/04/29 06:16:39;;;;;;;11.18;5.80;;;;;;;19.72;26.59;100905.38;5029312;28;20515;-66
2022/04/29 06:19:28;;;;;;;14.65;6.60;;;;;;;19.61;26.75;100907.66;5065818;28;20040;-67
2022/04/29 06:22:21;;;;;;;18.50;8.40;;;;;;;19.59;26.50;100896.13;5047380;28;20410;-62
2022/04/29 06:24:50;;;;;;;17.52;7.57;;;;;;;19.58;26.97;100911.06;5058352;28;20028;-63
2022/04/29 06:27:17;;;;;;;17.92;6.82;;;;;;;19.48;27.41;100899.47;5067895;28;20032;-63
2022/04/29 06:29:44;;;;;;;18.15;6.72;;;;;;;19.39;27.96;100906.88;5067941;28;20020;-64
2022/04/29 06:32:11;;;;;;;14.18;7.50;;;;;;;19.36;27.60;100880.78;5053232;28;20108;-64
2022/04/29 06:34:43;;;;;;;18.05;7.43;;;;;;;19.38;27.55;100886.78;5073257;28;20063;-61
2022/04/29 06:37:10;;;;;;;14.07;6.55;;;;;;;19.14;27.82;100880.88;5068582;28;20064;-62
2022/04/29 06:39:41;;;;;;;13.27;6.13;;;;;;;19.17;27.10;100888.50;5068818;28;20044;-65
2022/04/29 06:42:28;;;;;;;12.50;5.43;;;;;;;19.18;26.51;100901.16;5066423;28;20048;-64
2022/04/29 06:45:24;;;;;;;14.95;5.80;;;;;;;19.24;25.59;100897.13;5033088;28;20057;-62
2022/04/29 06:48:09;;;;;;;;;;;;;;;19.39;25.53;100907.72;5070367;28;20050;-62
2022/04/29 06:51:02;;;;;;;12.88;4.70;;;;;;;19.30;26.31;100887.59;5047318;28;19917;-62
2022/04/29 06:53:47;;;;;;;16.52;5.55;;;;;;;19.14;26.33;100881.69;5073370;28;20032;-65
2022/04/29 06:56:18;;;;;;;10.65;4.88;;;;;;;19.07;26.75;100886.03;5074090;28;20036;-63
2022/04/29 06:58:45;;;;;;;13.85;5.65;;;;;;;18.96;26.91;100882.75;5073079;28;20047;-65
2022/04/29 07:01:12;;;;;;;16.17;5.53;;;;;;;18.88;27.06;100902.81;5073276;28;20031;-64
2022/04/29 07:03:40;;;;;;;13.45;6.53;;;;;;;18.95;26.98;100901.22;5071526;28;20025;-62
2022/04/29 07:06:07;;;;;;;11.90;5.53;;;;;;;18.94;27.07;100910.59;5073355;28;20036;-63
2022/04/29 07:08:34;;;;;;;16.23;5.85;;;;;;;18.79;27.22;100905.50;5072352;28;20078;-62
2022/04/29 07:11:10;;;;;;;12.80;5.22;;;;;;;19.06;27.80;100906.47;5053793;28;20107;-63
2022/04/29 07:13:42;;;;;;;15.15;5.75;;;;;;;19.02;27.66;100907.06;5072473;28;20037;-62
2022/04/29 07:16:10;;;;;;;10.57;5.32;;;;;;;18.93;28.02;100921.94;5068803;28;20032;-62
2022/04/29 07:19:09;;;;;;;14.80;5.15;;;;;;;18.98;28.07;100930.06;5047223;28;20383;-64
2022/04/29 07:21:37;;;;;;;17.48;5.22;;;;;;;18.94;28.71;100929.88;5069452;28;20483;-63
2022/04/29 07:24:04;;;;;;;12.68;5.60;;;;;;;18.87;28.75;100929.53;5075103;28;20041;-63
2022/04/29 07:26:38;;;;;;;16.65;5.93;;;;;;;18.72;29.02;100921.66;5070660;28;20111;-63
2022/04/29 07:29:06;;;;;;;9.23;5.25;;;;;;;18.69;29.55;100916.78;5068283;28;20052;-64
2022/04/29 07:31:39;;;;;;;14.55;5.40;;;;;;;18.68;29.61;100929.75;5088117;28;20383;-62
2022/04/29 07:34:14;;;;;;;18.60;5.95;;;;;;;18.74;29.38;100924.91;5072045;28;20040;-61
2022/04/29 07:42:42;;;;;;;17.52;5.70;;;;;;;18.51;29.57;100926.84;5067973;28;20120;-63
2022/04/29 07:45:10;;;;;;;17.80;5.75;;;;;;;18.51;29.87;100929.59;5071228;28;20094;-62
2022/04/29 07:48:00;;;;;;;17.33;5.00;;;;;;;18.46;29.99;100920.63;5068432;28;20040;-61
2022/04/29 07:50:30;;;;;;;13.15;5.07;;;;;;;18.36;29.67;100914.25;5056399;28;20037;-64
2022/04/29 07:52:58;;;;;;;11.93;5.50;;;;;;;18.21;30.12;100919.31;5085514;28;20104;-64
2022/04/29 07:55:25;;;;;;;12.38;5.43;;;;;;;18.31;29.93;100919.91;5069309;28;20025;-61
2022/04/29 07:57:53;;;;;;;14.80;5.60;;;;;;;18.35;29.85;100937.41;5071169;28;20119;-61
2022/04/29 08:00:20;;;;;;;18.63;5.38;;;;;;;18.40;29.47;100942.78;5075146;28;20027;-61
2022/04/29 08:02:46;;;;;;;14.68;5.10;;;;;;;18.38;29.82;100936.78;5073059;28;20040;-61
2022/04/29 08:05:19;;;;;;;13.02;5.63;;;;;;;18.38;29.48;100928.53;5071900;28;20090;-63
2022/04/29 08:07:47;;;;;;;14.40;5.70;;;;;;;18.33;29.43;100931.41;5074863;28;20036;-63
2022/04/29 08:10:15;;;;;;;14.48;5.57;;;;;;;18.29;29.30;100924.06;5078235;28;20761;-63
2022/04/29 08:12:42;;;;;;;17.55;5.38;;;;;;;18.25;28.86;100928.56;5074253;28;20037;-62
2022/04/29 08:15:27;;;;;;;15.30;4.88;;;;;;;18.15;29.41;100943.38;5093793;28;20043;-62
2022/04/29 08:18:19;;;;;;;12.32;5.68;;;;;;;18.27;28.67;100937.31;5071052;28;20032;-62
2022/04/29 08:20:46;;;;;;;13.35;5.15;;;;;;;18.17;28.88;100916.38;5074582;28;20123;-63
2022/04/29 08:23:12;;;;;;;14.40;5.55;;;;;;;18.08;28.86;100910.78;5073287;28;20580;-60
2022/04/29 08:25:40;;;;;;;13.88;5.70;;;;;;;18.05;28.95;100907.84;5073608;28;20120;-61
2022/04/29 08:28:07;;;;;;;15.13;5.75;;;;;;;18.02;29.62;100903.78;5077861;28;20109;-61
2022/04/29 08:30:34;;;;;;;10.45;4.95;;;;;;;17.98;29.86;100934.97;5073881;28;20543;-61
2022/04/29 08:33:01;;;;;;;11.77;5.10;;;;;;;17.87;30.54;100952.81;5070547;28;20040;-61
2022/04/29 08:35:42;;;;;;;16.45;5.35;;;;;;;17.41;31.05;100920.72;5073005;28;20029;-61
2022/04/29 08:38:10;;;;;;;18.27;6.28;;;;;;;17.48;31.61;100943.13;5072547;28;20057;-61
2022/04/29 08:40:51;;;;;;;15.50;6.05;;;;;;;17.80;30.68;100921.06;5071576;28;20032;-61
2022/04/29 08:43:25;;;;;;;16.77;6.15;;;;;;;17.82;30.54;100915.25;5092941;28;20039;-60
2022/04/29 08:45:56;;;;;;;17.13;6.05;;;;;;;17.99;30.25;100929.16;5087067;28;20060;-61
2022/04/29 08:48:43;;;;;;;13.15;5.55;;;;;;;17.96;30.54;100942.72;5093738;28;20097;-63
2022/04/29 08:51:10;;;;;;;11.02;5.00;;;;;;;18.08;30.06;100930.03;5090913;28;20028;-62
2022/04/29 08:53:37;;;;;;;12.82;5.18;;;;;;;17.91;30.90;100940.06;5092970;28;20038;-62
2022/04/29 08:58:51;;;;;;;15.32;5.32;;;;;;;17.90;30.84;100935.69;5093682;28;20040;-62
2022/04/29 09:01:20;;;;;;;11.38;4.95;;;;;;;17.92;30.38;100930.69;5093410;28;20064;-63
2022/04/29 09:03:47;;;;;;;13.10;5.57;;;;;;;17.93;30.63;100937.81;5075381;28;20405;-62
2022/04/29 09:06:17;;;;;;;14.38;5.32;;;;;;;18.00;30.27;100936.28;5074800;28;20032;-62
2022/04/29 09:08:47;;;;;;;11.85;5.03;;;;;;;18.11;30.43;100939.59;5094189;28;20047;-61
2022/04/29 09:11:27;;;;;;;10.48;5.20;;;;;;;18.03;30.90;100949.41;5074098;28;20060;-62
2022/04/29 09:13:55;;;;;;;15.73;5.28;;;;;;;17.93;30.98;100944.13;5072963;28;20066;-62
2022/04/29 09:16:28;;;;;;;12.80;5.45;;;;;;;17.81;31.15;100930.94;5055152;28;20055;-62
2022/04/29 09:18:56;;;;;;;12.90;5.20;;;;;;;17.74;31.40;100930.50;5055744;28;20059;-62
2022/04/29 09:21:28;;;;;;;18.52;5.22;;;;;;;17.77;31.04;100935.41;5073770;28;20062;-62
2022/04/29 09:23:57;;;;;;;12.43;5.50;;;;;;;17.67;31.47;100941.09;5073296;28;20060;-62
2022/04/29 09:27:02;;;;;;;12.30;5.88;;;;;;;17.70;31.19;100937.75;5056081;28;20064;-62
2022/04/29 09:29:29;;;;;;;13.40;5.28;;;;;;;17.74;31.35;100929.69;5073466;28;20115;-62
2022/04/29 09:32:11;;;;;;;12.50;4.95;;;;;;;17.68;31.41;100925.44;5072825;28;20024;-62
2022/04/29 09:34:58;;;;;;;15.25;5.30;;;;;;;17.73;31.21;100934.38;5074079;28;20101;-62
2022/04/29 09:37:27;;;;;;;17.90;5.80;;;;;;;17.61;31.18;100947.81;5073365;28;20517;-63
2022/04/29 09:39:54;;;;;;;11.95;5.38;;;;;;;17.47;31.89;100941.50;5078792;28;20089;-61
2022/04/29 09:42:21;;;;;;;12.48;5.40;;;;;;;17.49;31.75;100936.53;5091379;28;20028;-62
2022/04/29 09:44:49;;;;;;;22.52;5.63;;;;;;;17.33;31.91;100924.22;5091864;28;20036;-62
2022/04/29 09:47:21;;;;;;;13.38;5.40;;;;;;;17.32;32.06;100931.63;5091854;28;20031;-62
2022/04/29 09:50:00;;;;;;;17.23;5.40;;;;;;;17.47;31.76;100947.81;5091815;28;20508;-62
2022/04/29 09:52:30;;;;;;;11.35;5.22;;;;;;;17.39;32.04;100936.72;5091809;28;20447;-62
2022/04/29 09:55:29;;;;;;;11.30;5.13;;;;;;;17.25;32.19;100933.16;5094001;28;20039;-61
2022/04/29 09:57:56;;;;;;;11.95;4.78;;;;;;;17.12;32.12;100940.25;5070808;28;20069;-61
2022/04/29 10:00:24;;;;;;;14.43;5.30;;;;;;;17.06;32.39;100936.00;5093818;28;20060;-62
2022/04/29 10:02:52;;;;;;;12.85;5.55;;;;;;;17.07;32.32;100945.84;5093570;28;20067;-61
2022/04/29 10:05:23;;;;;;;12.32;5.00;;;;;;;17.22;32.23;100942.81;5075312;28;20020;-61
2022/04/29 10:08:10;;;;;;;14.77;5.97;;;;;;;17.27;31.98;100941.91;5093277;28;20498;-61
2022/04/29 10:10:37;;;;;;;14.43;5.38;;;;;;;17.22;32.01;100945.53;5093625;28;20040;-61
2022/04/29 10:13:07;;;;;;;9.10;5.15;;;;;;;17.30;31.92;100958.59;5092206;28;20063;-61
2022/04/29 10:15:41;;;;;;;11.95;5.15;;;;;;;17.13;32.24;100956.44;5093431;28;20120;-61
2022/04/29 10:21:40;;;;;;;12.25;5.05;;;;;;;17.01;32.14;100952.53;5084889;28;20040;-61
2022/04/29 10:24:08;;;;;;;12.82;5.50;;;;;;;17.14;32.05;100952.56;5093385;28;20032;-61
2022/04/29 10:26:35;;;;;;;11.63;5.35;;;;;;;17.11;32.22;100944.94;5092625;28;20466;-61
2022/04/29 10:29:03;;;;;;;15.32;6.15;;;;;;;16.91;32.66;100953.56;5092174;28;20040;-61
2022/04/29 10:31:30;;;;;;;14.32;5.28;;;;;;;16.90;32.54;100957.41;5093368;28;20103;-60
2022/04/29 10:34:27;;;;;;;16.08;6.50;;;;;;;16.86;33.48;100964.59;5093369;28;20040;-60
2022/04/29 10:36:54;;;;;;;14.70;5.38;;;;;;;16.53;33.75;100959.09;5093034;28;20036;-60
2022/04/29 10:39:22;;;;;;;10.13;5.20;;;;;;;16.47;33.21;100964.94;5091875;28;20048;-62
2022/04/29 10:42:03;;;;;;;11.70;5.43;;;;;;;16.52;33.33;100962.13;5093085;28;20032;-61
2022/04/29 10:44:32;;;;;;;10.27;5.07;;;;;;;16.28;33.19;100943.00;5058911;28;20368;-61
2022/04/29 10:47:41;;;;;;;12.50;5.68;;;;;;;16.44;33.49;100974.59;5092974;28;20415;-61
2022/04/29 10:50:37;;;;;;;11.40;5.05;;;;;;;16.57;32.70;100979.31;5075009;28;20048;-60
2022/04/29 10:53:36;;;;;;;11.30;5.05;;;;;;;16.68;32.58;100970.94;5085548;28;20390;-62
2022/04/29 10:56:31;;;;;;;13.30;5.90;;;;;;;16.46;33.48;100963.31;5075044;28;20124;-62
2022/04/29 10:59:13;;;;;;;11.75;5.38;;;;;;;16.65;32.66;100964.09;5093191;28;20477;-62
2022/04/29 11:01:41;;;;;;;13.85;5.80;;;;;;;16.66;32.50;100973.97;5093245;28;20047;-62
2022/04/29 11:04:31;;;;;;;8.90;4.75;;;;;;;16.53;32.77;100974.75;5074843;28;20020;-63
2022/04/29 11:06:57;;;;;;;10.40;4.82;;;;;;;16.21;32.70;100965.34;5092705;28;20071;-63
2022/04/29 11:09:24;;;;;;;11.95;5.53;;;;;;;16.36;32.67;100991.72;5092985;28;20036;-60
2022/04/29 11:11:51;;;;;;;14.02;5.38;;;;;;;16.53;32.63;100997.50;5074429;28;20043;-63
2022/04/29 11:15:10;;;;;;;12.55;5.28;;;;;;;16.66;32.17;100987.69;5072306;28;20071;-63
2022/04/29 11:18:26;;;;;;;16.17;6.43;;;;;;;16.66;32.05;100995.91;5072695;28;20130;-62
2022/04/29 11:20:56;;;;;;;12.98;6.43;;;;;;;16.87;32.17;101002.72;5054697;28;20028;-62
2022/04/29 11:26:17;;;;;;;11.32;5.50;;;;;;;16.90;31.66;101006.81;5072502;28;20082;-63
2022/04/29 11:28:54;;;;;;;10.23;5.05;;;;;;;16.75;31.60;101007.06;5054603;28;20123;-62
2022/04/29 11:31:41;;;;;;;16.42;5.65;;;;;;;16.92;31.53;101010.91;5072749;28;20121;-62
2022/04/29 11:34:13;;;;;;;12.55;5.30;;;;;;;16.89;31.36;100999.72;5054689;28;20036;-63
2022/04/29 11:36:41;;;;;;;10.93;5.28;;;;;;;16.91;31.54;101006.53;5092497;28;20054;-62
2022/04/29 11:39:18;;;;;;;14.68;5.40;;;;;;;16.91;31.55;101011.19;5076977;28;20078;-62
2022/04/29 11:42:16;;;;;;;11.50;4.65;;;;;;;16.93;31.68;101014.47;5096012;28;20107;-62
2022/04/29 11:44:45;;;;;;;9.20;4.50;;;;;;;16.89;32.07;101013.44;5111489;28;20048;-62
2022/04/29 11:47:13;;;;;;;12.05;4.80;;;;;;;16.86;31.96;101027.72;5096096;28;20036;-63
2022/04/29 11:49:44;;;;;;;13.18;5.30;;;;;;;16.88;32.17;101034.59;5096461;28;20079;-62
2022/04/29 11:52:27;;;;;;;12.57;5.03;;;;;;;16.79;32.79;101036.34;5096004;28;20054;-62
2022/04/29 11:55:02;;;;;;;14.00;4.70;;;;;;;16.55;33.12;101025.44;5094813;28;20046;-62
2022/04/29 11:57:31;;;;;;;12.25;5.03;;;;;;;16.61;32.75;101028.94;5096006;28;20043;-62
2022/04/29 11:59:58;;;;;;;10.32;4.88;;;;;;;16.73;32.55;101036.75;5096164;28;20532;-62
2022/04/29 12:02:28;;;;;;;13.90;5.35;;;;;;;16.83;32.25;101042.06;5095980;28;20048;-62
2022/04/29 12:05:07;;;;;;;14.27;5.30;;;;;;;16.87;32.39;101038.41;5095859;28;20027;-61
2022/04/29 12:07:45;;;;;;;23.90;5.78;;;;;;;16.80;32.33;101040.72;5095586;28;20082;-61